JNA714 VHHH-RKPC
Flight info
| Callsign | JNA714 |
|---|---|
| Flight time | N/A |
| Altitude | 35000 |
| Route | DALOL V631 ENVAR M750 ANLOT B1 APU DCT DRAKE Q11 WP900 L4 LIPLO Y741 ATOTI Y722 SOSDO SOSDO2M |
| Aircraft | B738/M-SDE2E3FGHIRWXY/LB1 |
Departure
| Time | 2026-05-06 15:32 |
|---|---|
| Airport | Hong Kong International Airport (VHHH) |
Arrival
| Time | N/A |
|---|---|
| Airport | Jeju International Airport (RKPC) |
| Time | Latitude | Longitude | Altitude | Speed | Heading |
|---|---|---|---|---|---|
| 2026-05-06 15:05 | 22.31285 | 113.92906 | 31 ft | 0 kts | 341° |
| 2026-05-06 15:20 | 22.31265 | 113.92913 | 30 ft | 4 kts | 341° |
| 2026-05-06 15:21 | 22.31239 | 113.92923 | 30 ft | 4 kts | 341° |
| 2026-05-06 15:21 | 22.31219 | 113.92930 | 30 ft | 4 kts | 339° |
| 2026-05-06 15:21 | 22.31198 | 113.92944 | 31 ft | 4 kts | 292° |
| 2026-05-06 15:21 | 22.31198 | 113.92969 | 30 ft | 3 kts | 251° |
| 2026-05-06 15:22 | 22.31205 | 113.92992 | 29 ft | 1 kts | 251° |
| 2026-05-06 15:24 | 22.31204 | 113.92990 | 31 ft | 1 kts | 251° |
| 2026-05-06 15:25 | 22.31196 | 113.92962 | 29 ft | 7 kts | 251° |
| 2026-05-06 15:25 | 22.31166 | 113.92895 | 31 ft | 13 kts | 226° |
| 2026-05-06 15:25 | 22.31070 | 113.92839 | 31 ft | 18 kts | 205° |
| 2026-05-06 15:25 | 22.30951 | 113.92777 | 31 ft | 18 kts | 206° |
| 2026-05-06 15:26 | 22.30853 | 113.92723 | 31 ft | 14 kts | 219° |
| 2026-05-06 15:26 | 22.30804 | 113.92609 | 31 ft | 19 kts | 250° |
| 2026-05-06 15:26 | 22.30772 | 113.92510 | 31 ft | 23 kts | 251° |
| 2026-05-06 15:26 | 22.30693 | 113.92268 | 31 ft | 28 kts | 251° |
| 2026-05-06 15:27 | 22.30624 | 113.92052 | 31 ft | 32 kts | 251° |
| 2026-05-06 15:27 | 22.30574 | 113.91894 | 30 ft | 35 kts | 250° |
| 2026-05-06 15:27 | 22.30467 | 113.91567 | 31 ft | 37 kts | 250° |
| 2026-05-06 15:27 | 22.30390 | 113.91325 | 31 ft | 17 kts | 251° |
| 2026-05-06 15:28 | 22.30365 | 113.91249 | 31 ft | 16 kts | 251° |
| 2026-05-06 15:28 | 22.30329 | 113.91138 | 31 ft | 15 kts | 251° |
| 2026-05-06 15:28 | 22.30295 | 113.91031 | 31 ft | 15 kts | 251° |
| 2026-05-06 15:28 | 22.30262 | 113.90928 | 31 ft | 14 kts | 251° |
| 2026-05-06 15:29 | 22.30230 | 113.90829 | 31 ft | 14 kts | 251° |
| 2026-05-06 15:29 | 22.30193 | 113.90716 | 31 ft | 18 kts | 250° |
| 2026-05-06 15:29 | 22.30148 | 113.90577 | 31 ft | 22 kts | 251° |
| 2026-05-06 15:29 | 22.30096 | 113.90412 | 31 ft | 25 kts | 251° |
| 2026-05-06 15:30 | 22.30036 | 113.90227 | 31 ft | 27 kts | 251° |
| 2026-05-06 15:30 | 22.29975 | 113.90039 | 31 ft | 25 kts | 251° |
| 2026-05-06 15:30 | 22.29928 | 113.89892 | 31 ft | 13 kts | 250° |
| 2026-05-06 15:30 | 22.29856 | 113.89844 | 31 ft | 15 kts | 164° |
| 2026-05-06 15:31 | 22.29753 | 113.89882 | 31 ft | 11 kts | 161° |
| 2026-05-06 15:31 | 22.29675 | 113.89933 | 29 ft | 15 kts | 110° |
| 2026-05-06 15:31 | 22.29687 | 113.90009 | 29 ft | 10 kts | 71° |
| 2026-05-06 15:32 | 22.29959 | 113.90851 | 30 ft | 125 kts | 71° |
| 2026-05-06 15:32 | 22.30299 | 113.91935 | 123 ft | 173 kts | 72° |
| 2026-05-06 15:32 | 22.30707 | 113.93258 | 557 ft | 200 kts | 73° |
| 2026-05-06 15:32 | 22.31194 | 113.94770 | 776 ft | 228 kts | 72° |
| 2026-05-06 15:33 | 22.31744 | 113.96449 | 1169 ft | 239 kts | 72° |
| 2026-05-06 15:33 | 22.32275 | 113.98072 | 2194 ft | 222 kts | 73° |
| 2026-05-06 15:33 | 22.32785 | 113.99643 | 2723 ft | 230 kts | 73° |
| 2026-05-06 15:33 | 22.33322 | 114.01308 | 3298 ft | 236 kts | 72° |
| 2026-05-06 15:34 | 22.33798 | 114.03008 | 3903 ft | 238 kts | 83° |
| 2026-05-06 15:34 | 22.33756 | 114.04791 | 4511 ft | 239 kts | 105° |
| 2026-05-06 15:34 | 22.33116 | 114.06445 | 5115 ft | 240 kts | 126° |
| 2026-05-06 15:34 | 22.31971 | 114.07746 | 5703 ft | 240 kts | 147° |
| 2026-05-06 15:35 | 22.30463 | 114.08498 | 6301 ft | 240 kts | 168° |
| 2026-05-06 15:35 | 22.28804 | 114.08721 | 6861 ft | 241 kts | 180° |
| 2026-05-06 15:35 | 22.27109 | 114.08734 | 7401 ft | 246 kts | 182° |
| 2026-05-06 15:35 | 22.25383 | 114.08725 | 8054 ft | 249 kts | 182° |
| 2026-05-06 15:36 | 22.23632 | 114.08702 | 8619 ft | 259 kts | 183° |
| 2026-05-06 15:36 | 22.21741 | 114.08669 | 8858 ft | 281 kts | 183° |
| 2026-05-06 15:36 | 22.19751 | 114.08643 | 9438 ft | 290 kts | 183° |
| 2026-05-06 15:36 | 22.17722 | 114.08718 | 10099 ft | 296 kts | 171° |
| 2026-05-06 15:37 | 22.15793 | 114.09638 | 10412 ft | 320 kts | 143° |
| 2026-05-06 15:37 | 22.14327 | 114.11552 | 10590 ft | 344 kts | 123° |
| 2026-05-06 15:37 | 22.13064 | 114.13832 | 10741 ft | 364 kts | 121° |
| 2026-05-06 15:37 | 22.11774 | 114.16263 | 10863 ft | 383 kts | 121° |
| 2026-05-06 15:38 | 22.10430 | 114.18809 | 11073 ft | 396 kts | 121° |
| 2026-05-06 15:38 | 22.09054 | 114.21400 | 11512 ft | 402 kts | 121° |
| 2026-05-06 15:38 | 22.07651 | 114.24018 | 12026 ft | 405 kts | 121° |
| 2026-05-06 15:38 | 22.06231 | 114.26647 | 12528 ft | 408 kts | 121° |
| 2026-05-06 15:39 | 22.04791 | 114.29295 | 13031 ft | 411 kts | 121° |
| 2026-05-06 15:39 | 22.03336 | 114.31961 | 13514 ft | 414 kts | 121° |
| 2026-05-06 15:39 | 22.01866 | 114.34648 | 13938 ft | 418 kts | 122° |
| 2026-05-06 15:39 | 22.00380 | 114.37361 | 14341 ft | 421 kts | 122° |
| 2026-05-06 15:40 | 21.98888 | 114.40084 | 14801 ft | 423 kts | 121° |
| 2026-05-06 15:40 | 21.97387 | 114.42822 | 15196 ft | 426 kts | 121° |
| 2026-05-06 15:40 | 21.95879 | 114.45572 | 15635 ft | 427 kts | 122° |
| 2026-05-06 15:40 | 21.94364 | 114.48335 | 16075 ft | 429 kts | 122° |
| 2026-05-06 15:41 | 21.92844 | 114.51104 | 16515 ft | 430 kts | 122° |
| 2026-05-06 15:41 | 21.91315 | 114.53886 | 16896 ft | 433 kts | 122° |
| 2026-05-06 15:41 | 21.89778 | 114.56684 | 17277 ft | 435 kts | 122° |
| 2026-05-06 15:41 | 21.88232 | 114.59497 | 17661 ft | 438 kts | 122° |
| 2026-05-06 15:42 | 21.86677 | 114.62324 | 18041 ft | 440 kts | 122° |
| 2026-05-06 15:42 | 21.85114 | 114.65164 | 18388 ft | 442 kts | 122° |
| 2026-05-06 15:42 | 21.83564 | 114.67980 | 18687 ft | 444 kts | 122° |
| 2026-05-06 15:42 | 21.81985 | 114.70847 | 18978 ft | 447 kts | 122° |
| 2026-05-06 15:43 | 21.80397 | 114.73728 | 19278 ft | 449 kts | 122° |
| 2026-05-06 15:43 | 21.78800 | 114.76627 | 19579 ft | 451 kts | 122° |
| 2026-05-06 15:43 | 21.77195 | 114.79535 | 19874 ft | 453 kts | 122° |
| 2026-05-06 15:43 | 21.75731 | 114.82543 | 20168 ft | 457 kts | 114° |
| 2026-05-06 15:44 | 21.74764 | 114.85808 | 20458 ft | 461 kts | 104° |
| 2026-05-06 15:44 | 21.74283 | 114.89223 | 20738 ft | 464 kts | 94° |
| 2026-05-06 15:44 | 21.74242 | 114.92703 | 21005 ft | 467 kts | 90° |
| 2026-05-06 15:44 | 21.74280 | 114.96204 | 21262 ft | 469 kts | 90° |
| 2026-05-06 15:45 | 21.74322 | 114.99721 | 21523 ft | 471 kts | 90° |
| 2026-05-06 15:45 | 21.74346 | 115.03257 | 21739 ft | 475 kts | 91° |
| 2026-05-06 15:45 | 21.74351 | 115.06817 | 21956 ft | 477 kts | 91° |
| 2026-05-06 15:45 | 21.74343 | 115.10397 | 22210 ft | 479 kts | 91° |
| 2026-05-06 15:46 | 21.74328 | 115.13986 | 22466 ft | 481 kts | 91° |
| 2026-05-06 15:46 | 21.74314 | 115.17588 | 22713 ft | 483 kts | 91° |
| 2026-05-06 15:46 | 21.74300 | 115.21205 | 22942 ft | 485 kts | 91° |
| 2026-05-06 15:46 | 21.74289 | 115.24840 | 23168 ft | 487 kts | 91° |
| 2026-05-06 15:47 | 21.74282 | 115.28485 | 23390 ft | 489 kts | 91° |
| 2026-05-06 15:47 | 21.74276 | 115.32145 | 23602 ft | 490 kts | 91° |
| 2026-05-06 15:47 | 21.74269 | 115.35820 | 23755 ft | 493 kts | 91° |
| 2026-05-06 15:47 | 21.74260 | 115.39515 | 23918 ft | 495 kts | 91° |
| 2026-05-06 15:48 | 21.74250 | 115.43217 | 24118 ft | 496 kts | 91° |
| 2026-05-06 15:48 | 21.74239 | 115.46927 | 24325 ft | 496 kts | 91° |
| 2026-05-06 15:48 | 21.74227 | 115.50638 | 24518 ft | 497 kts | 91° |
| 2026-05-06 15:48 | 21.74215 | 115.54363 | 24694 ft | 498 kts | 91° |
| 2026-05-06 15:49 | 21.74201 | 115.58092 | 24868 ft | 500 kts | 91° |
| 2026-05-06 15:49 | 21.74187 | 115.61830 | 25053 ft | 501 kts | 91° |
| 2026-05-06 15:49 | 21.74174 | 115.65582 | 25223 ft | 501 kts | 91° |
| 2026-05-06 15:49 | 21.74161 | 115.69334 | 25402 ft | 502 kts | 91° |
| 2026-05-06 15:50 | 21.74147 | 115.73093 | 25571 ft | 503 kts | 90° |
| 2026-05-06 15:50 | 21.74132 | 115.76863 | 25739 ft | 504 kts | 90° |
| 2026-05-06 15:50 | 21.74116 | 115.80637 | 25898 ft | 505 kts | 90° |
| 2026-05-06 15:50 | 21.74099 | 115.84424 | 26055 ft | 507 kts | 90° |
| 2026-05-06 15:51 | 21.74081 | 115.88213 | 26211 ft | 508 kts | 90° |
| 2026-05-06 15:51 | 21.74063 | 115.92012 | 26363 ft | 509 kts | 90° |
| 2026-05-06 15:51 | 21.74043 | 115.95824 | 26513 ft | 510 kts | 90° |
| 2026-05-06 15:51 | 21.74022 | 115.99632 | 26675 ft | 510 kts | 90° |
| 2026-05-06 15:52 | 21.74001 | 116.03454 | 26817 ft | 511 kts | 90° |
| 2026-05-06 15:52 | 21.73978 | 116.07281 | 26958 ft | 512 kts | 90° |
| 2026-05-06 15:52 | 21.73955 | 116.11064 | 27099 ft | 513 kts | 90° |
| 2026-05-06 15:52 | 21.73931 | 116.14901 | 27290 ft | 513 kts | 90° |
| 2026-05-06 15:53 | 21.73906 | 116.18731 | 27531 ft | 512 kts | 90° |
| 2026-05-06 15:53 | 21.73880 | 116.22552 | 27778 ft | 510 kts | 90° |
| 2026-05-06 15:53 | 21.73853 | 116.26362 | 28001 ft | 510 kts | 90° |
| 2026-05-06 15:53 | 21.73825 | 116.30175 | 28195 ft | 510 kts | 90° |
| 2026-05-06 15:54 | 21.73797 | 116.33988 | 28400 ft | 510 kts | 90° |
| 2026-05-06 15:54 | 21.73767 | 116.37803 | 28645 ft | 509 kts | 90° |
| 2026-05-06 15:54 | 21.73737 | 116.41602 | 28913 ft | 508 kts | 90° |
| 2026-05-06 15:54 | 21.73706 | 116.45396 | 29169 ft | 507 kts | 90° |
| 2026-05-06 15:55 | 21.73675 | 116.49189 | 29414 ft | 507 kts | 90° |
| 2026-05-06 15:55 | 21.73642 | 116.52978 | 29661 ft | 506 kts | 90° |
| 2026-05-06 15:55 | 21.73608 | 116.56762 | 29925 ft | 505 kts | 90° |
| 2026-05-06 15:55 | 21.73574 | 116.60540 | 30149 ft | 505 kts | 90° |
| 2026-05-06 15:56 | 21.73539 | 116.64319 | 30335 ft | 506 kts | 90° |
| 2026-05-06 15:56 | 21.73504 | 116.68098 | 30528 ft | 505 kts | 90° |
| 2026-05-06 15:56 | 21.73467 | 116.71878 | 30742 ft | 505 kts | 90° |
| 2026-05-06 15:56 | 21.73485 | 116.75649 | 30948 ft | 504 kts | 85° |
| 2026-05-06 15:57 | 21.73937 | 116.79386 | 31146 ft | 503 kts | 77° |
| 2026-05-06 15:57 | 21.74874 | 116.83000 | 31353 ft | 501 kts | 68° |
| 2026-05-06 15:57 | 21.76149 | 116.86483 | 31589 ft | 500 kts | 66° |
| 2026-05-06 15:57 | 21.77454 | 116.89941 | 31797 ft | 500 kts | 66° |
| 2026-05-06 15:58 | 21.78761 | 116.93408 | 31992 ft | 500 kts | 66° |
| 2026-05-06 15:58 | 21.80055 | 116.96880 | 32212 ft | 500 kts | 66° |
| 2026-05-06 15:58 | 21.81332 | 117.00356 | 32448 ft | 499 kts | 66° |
| 2026-05-06 15:58 | 21.82595 | 117.03829 | 32677 ft | 498 kts | 66° |
| 2026-05-06 15:59 | 21.83850 | 117.07301 | 32892 ft | 498 kts | 66° |
| 2026-05-06 15:59 | 21.85104 | 117.10779 | 33113 ft | 498 kts | 66° |
| 2026-05-06 15:59 | 21.86355 | 117.14252 | 33334 ft | 497 kts | 66° |
| 2026-05-06 15:59 | 21.87605 | 117.17722 | 33563 ft | 497 kts | 66° |
| 2026-05-06 16:00 | 21.88852 | 117.21187 | 33828 ft | 495 kts | 66° |
| 2026-05-06 16:00 | 21.90096 | 117.24641 | 34070 ft | 494 kts | 66° |
| 2026-05-06 16:00 | 21.91338 | 117.28090 | 34254 ft | 495 kts | 66° |
| 2026-05-06 16:00 | 21.92580 | 117.31545 | 34404 ft | 495 kts | 66° |
| 2026-05-06 16:01 | 21.93822 | 117.35001 | 34605 ft | 495 kts | 66° |
| 2026-05-06 16:01 | 21.95063 | 117.38456 | 34770 ft | 495 kts | 66° |
| 2026-05-06 16:01 | 21.96304 | 117.41914 | 34936 ft | 495 kts | 66° |
| 2026-05-06 16:01 | 21.97545 | 117.45375 | 34971 ft | 497 kts | 66° |
| 2026-05-06 16:02 | 22.00267 | 117.52186 | 34967 ft | 491 kts | 57° |
| 2026-05-06 16:02 | 22.03819 | 117.58407 | 34979 ft | 486 kts | 54° |
| 2026-05-06 16:03 | 22.07414 | 117.64551 | 34982 ft | 483 kts | 55° |
| 2026-05-06 16:03 | 22.10939 | 117.70713 | 34987 ft | 482 kts | 56° |
| 2026-05-06 16:04 | 22.14428 | 117.76893 | 34986 ft | 483 kts | 56° |
| 2026-05-06 16:04 | 22.17920 | 117.83094 | 34989 ft | 485 kts | 56° |
| 2026-05-06 16:05 | 22.21428 | 117.89323 | 34992 ft | 487 kts | 56° |
| 2026-05-06 16:05 | 22.24950 | 117.95581 | 34990 ft | 489 kts | 56° |
| 2026-05-06 16:06 | 22.28491 | 118.01863 | 34990 ft | 491 kts | 55° |
| 2026-05-06 16:06 | 22.32142 | 118.08098 | 34993 ft | 491 kts | 54° |
| 2026-05-06 16:07 | 22.35787 | 118.14284 | 34986 ft | 492 kts | 55° |
| 2026-05-06 16:07 | 22.39439 | 118.20533 | 34988 ft | 491 kts | 55° |
| 2026-05-06 16:08 | 22.43039 | 118.26804 | 34985 ft | 491 kts | 56° |
| 2026-05-06 16:08 | 22.46587 | 118.33103 | 34984 ft | 490 kts | 56° |
| 2026-05-06 16:09 | 22.50136 | 118.39395 | 34986 ft | 489 kts | 56° |
| 2026-05-06 16:09 | 22.53682 | 118.45672 | 34980 ft | 489 kts | 56° |
| 2026-05-06 16:10 | 22.57221 | 118.51942 | 34983 ft | 488 kts | 56° |
| 2026-05-06 16:10 | 22.60778 | 118.58187 | 34983 ft | 487 kts | 56° |
| 2026-05-06 16:11 | 22.64340 | 118.64417 | 34983 ft | 486 kts | 56° |
| 2026-05-06 16:11 | 22.67894 | 118.70648 | 34981 ft | 486 kts | 56° |
| 2026-05-06 16:12 | 22.71440 | 118.76880 | 34988 ft | 486 kts | 56° |
| 2026-05-06 16:12 | 22.74980 | 118.83113 | 34983 ft | 486 kts | 56° |
| 2026-05-06 16:13 | 22.78518 | 118.89348 | 34983 ft | 486 kts | 56° |
| 2026-05-06 16:13 | 22.81459 | 118.94538 | 34979 ft | 486 kts | 56° |
| 2026-05-06 16:14 | 22.84999 | 119.00790 | 34983 ft | 487 kts | 56° |
| 2026-05-06 16:14 | 22.88542 | 119.07056 | 34977 ft | 488 kts | 56° |
| 2026-05-06 16:15 | 22.92087 | 119.13333 | 34981 ft | 488 kts | 56° |
| 2026-05-06 16:15 | 22.95633 | 119.19620 | 34984 ft | 489 kts | 56° |
| 2026-05-06 16:16 | 22.99183 | 119.25920 | 34969 ft | 489 kts | 56° |
| 2026-05-06 16:16 | 23.02734 | 119.32232 | 34977 ft | 490 kts | 56° |
| 2026-05-06 16:17 | 23.06285 | 119.38551 | 34977 ft | 490 kts | 56° |
| 2026-05-06 16:17 | 23.09834 | 119.44875 | 34975 ft | 490 kts | 56° |
| 2026-05-06 16:18 | 23.13383 | 119.51206 | 34977 ft | 490 kts | 56° |
| 2026-05-06 16:18 | 23.16926 | 119.57533 | 34974 ft | 490 kts | 56° |
| 2026-05-06 16:19 | 23.20465 | 119.63864 | 34973 ft | 490 kts | 56° |
| 2026-05-06 16:19 | 23.23972 | 119.70151 | 34979 ft | 490 kts | 56° |
| 2026-05-06 16:20 | 23.27500 | 119.76485 | 34975 ft | 489 kts | 56° |
| 2026-05-06 16:20 | 23.31021 | 119.82815 | 34978 ft | 489 kts | 56° |
| 2026-05-06 16:21 | 23.34539 | 119.89144 | 34975 ft | 489 kts | 56° |
| 2026-05-06 16:21 | 23.38603 | 119.94984 | 34968 ft | 481 kts | 40° |
| 2026-05-06 16:22 | 23.43488 | 119.99939 | 34981 ft | 480 kts | 39° |
| 2026-05-06 16:22 | 23.48389 | 120.04875 | 34973 ft | 480 kts | 39° |
| 2026-05-06 16:23 | 23.53260 | 120.09864 | 34972 ft | 481 kts | 40° |
| 2026-05-06 16:23 | 23.58116 | 120.14881 | 34974 ft | 481 kts | 40° |
| 2026-05-06 16:24 | 23.62967 | 120.19905 | 34972 ft | 481 kts | 40° |
| 2026-05-06 16:24 | 23.67825 | 120.24937 | 34976 ft | 482 kts | 40° |
| 2026-05-06 16:25 | 23.72682 | 120.29972 | 34974 ft | 482 kts | 40° |
| 2026-05-06 16:25 | 23.77539 | 120.35012 | 34971 ft | 482 kts | 40° |
| 2026-05-06 16:26 | 23.82398 | 120.40060 | 34983 ft | 482 kts | 39° |
| 2026-05-06 16:26 | 23.87254 | 120.45110 | 34979 ft | 482 kts | 39° |
| 2026-05-06 16:27 | 23.92151 | 120.50028 | 34971 ft | 479 kts | 34° |
| 2026-05-06 16:27 | 23.97491 | 120.54356 | 34982 ft | 477 kts | 31° |
| 2026-05-06 16:28 | 24.02901 | 120.58572 | 34987 ft | 477 kts | 31° |
| 2026-05-06 16:28 | 24.08278 | 120.62844 | 34990 ft | 478 kts | 32° |
| 2026-05-06 16:29 | 24.13635 | 120.67161 | 34999 ft | 478 kts | 32° |
| 2026-05-06 16:29 | 24.18988 | 120.71492 | 34995 ft | 478 kts | 32° |
| 2026-05-06 16:30 | 24.23429 | 120.75086 | 34995 ft | 478 kts | 32° |
| 2026-05-06 16:30 | 24.29686 | 120.80152 | 35002 ft | 478 kts | 32° |
| 2026-05-06 16:31 | 24.35038 | 120.84490 | 35004 ft | 478 kts | 32° |
| 2026-05-06 16:31 | 24.40389 | 120.88832 | 34993 ft | 479 kts | 32° |
| 2026-05-06 16:32 | 24.45743 | 120.93182 | 34999 ft | 479 kts | 32° |
| 2026-05-06 16:32 | 24.51094 | 120.97533 | 35014 ft | 479 kts | 32° |
| 2026-05-06 16:33 | 24.56455 | 121.01903 | 35001 ft | 480 kts | 32° |
| 2026-05-06 16:34 | 24.64495 | 121.08470 | 34996 ft | 480 kts | 32° |
| 2026-05-06 16:34 | 24.69857 | 121.12854 | 34990 ft | 480 kts | 32° |
| 2026-05-06 16:35 | 24.75211 | 121.17233 | 34967 ft | 479 kts | 32° |
| 2026-05-06 16:35 | 24.80553 | 121.21615 | 34987 ft | 479 kts | 32° |
| 2026-05-06 16:36 | 24.85890 | 121.25996 | 34960 ft | 478 kts | 32° |
| 2026-05-06 16:36 | 24.91218 | 121.30373 | 34973 ft | 477 kts | 32° |
| 2026-05-06 16:37 | 24.96542 | 121.34750 | 34966 ft | 477 kts | 32° |
| 2026-05-06 16:37 | 25.01865 | 121.39132 | 34979 ft | 478 kts | 32° |
| 2026-05-06 16:38 | 25.07194 | 121.43524 | 34966 ft | 479 kts | 32° |
| 2026-05-06 16:38 | 25.12492 | 121.47896 | 34970 ft | 479 kts | 32° |
| 2026-05-06 16:39 | 25.17788 | 121.52371 | 34939 ft | 482 kts | 38° |
| 2026-05-06 16:39 | 25.22352 | 121.57842 | 34950 ft | 486 kts | 45° |
| 2026-05-06 16:40 | 25.26746 | 121.63516 | 34966 ft | 486 kts | 46° |
| 2026-05-06 16:40 | 25.31168 | 121.69178 | 34962 ft | 487 kts | 45° |
| 2026-05-06 16:41 | 25.35625 | 121.74825 | 34957 ft | 488 kts | 45° |
| 2026-05-06 16:41 | 25.40094 | 121.80476 | 34964 ft | 488 kts | 45° |
| 2026-05-06 16:42 | 25.44556 | 121.86128 | 34980 ft | 488 kts | 45° |
| 2026-05-06 16:42 | 25.49011 | 121.91781 | 34970 ft | 487 kts | 45° |
| 2026-05-06 16:43 | 25.53458 | 121.97433 | 34980 ft | 486 kts | 45° |
| 2026-05-06 16:43 | 25.57895 | 122.03078 | 34980 ft | 486 kts | 45° |
| 2026-05-06 16:44 | 25.62477 | 122.08537 | 34978 ft | 481 kts | 36° |
| 2026-05-06 16:44 | 25.67865 | 122.12820 | 34990 ft | 476 kts | 31° |
| 2026-05-06 16:45 | 25.73333 | 122.16955 | 34985 ft | 476 kts | 31° |
| 2026-05-06 16:45 | 25.78772 | 122.21137 | 34984 ft | 475 kts | 31° |
| 2026-05-06 16:46 | 25.84183 | 122.25348 | 34986 ft | 475 kts | 31° |
| 2026-05-06 16:46 | 25.89585 | 122.29566 | 34995 ft | 475 kts | 31° |
| 2026-05-06 16:47 | 25.94991 | 122.33789 | 34984 ft | 475 kts | 31° |
| 2026-05-06 16:47 | 26.00394 | 122.38014 | 34997 ft | 475 kts | 31° |
| 2026-05-06 16:48 | 26.05794 | 122.42240 | 34994 ft | 475 kts | 31° |
| 2026-05-06 16:48 | 26.11158 | 122.46443 | 34998 ft | 475 kts | 31° |
| 2026-05-06 16:49 | 26.16557 | 122.50677 | 34996 ft | 475 kts | 31° |
| 2026-05-06 16:49 | 26.21948 | 122.54927 | 34996 ft | 475 kts | 32° |
| 2026-05-06 16:50 | 26.27335 | 122.59187 | 34995 ft | 475 kts | 32° |
| 2026-05-06 16:50 | 26.32718 | 122.63450 | 35008 ft | 475 kts | 32° |
| 2026-05-06 16:51 | 26.38104 | 122.67717 | 34994 ft | 475 kts | 32° |
| 2026-05-06 16:51 | 26.43485 | 122.71985 | 35004 ft | 475 kts | 32° |
| 2026-05-06 16:52 | 26.48865 | 122.76258 | 35008 ft | 474 kts | 32° |
| 2026-05-06 16:52 | 26.54239 | 122.80530 | 35013 ft | 474 kts | 32° |
| 2026-05-06 16:53 | 26.59624 | 122.84798 | 35006 ft | 474 kts | 31° |
| 2026-05-06 16:53 | 26.65008 | 122.89055 | 35010 ft | 474 kts | 31° |
| 2026-05-06 16:54 | 26.70388 | 122.93318 | 35010 ft | 474 kts | 31° |
| 2026-05-06 16:54 | 26.75764 | 122.97586 | 35017 ft | 474 kts | 31° |
| 2026-05-06 16:55 | 26.81102 | 123.01829 | 35013 ft | 474 kts | 31° |
| 2026-05-06 16:55 | 26.86468 | 123.06110 | 35010 ft | 474 kts | 31° |
| 2026-05-06 16:56 | 26.91829 | 123.10396 | 35009 ft | 473 kts | 31° |
| 2026-05-06 16:56 | 26.97188 | 123.14686 | 35010 ft | 473 kts | 31° |
| 2026-05-06 16:57 | 27.02548 | 123.18980 | 35017 ft | 473 kts | 31° |
| 2026-05-06 16:57 | 27.07904 | 123.23275 | 35016 ft | 473 kts | 31° |
| 2026-05-06 16:58 | 27.13260 | 123.27576 | 35017 ft | 473 kts | 31° |
| 2026-05-06 16:58 | 27.18616 | 123.31883 | 35023 ft | 474 kts | 31° |
| 2026-05-06 16:59 | 27.23975 | 123.36196 | 35019 ft | 474 kts | 31° |
| 2026-05-06 16:59 | 27.29333 | 123.40515 | 35019 ft | 474 kts | 31° |
| 2026-05-06 17:00 | 27.34692 | 123.44840 | 35015 ft | 474 kts | 31° |
| 2026-05-06 17:00 | 27.40051 | 123.49169 | 35023 ft | 474 kts | 31° |
| 2026-05-06 17:01 | 27.45411 | 123.53506 | 35012 ft | 475 kts | 31° |
| 2026-05-06 17:01 | 27.49869 | 123.57116 | 35021 ft | 475 kts | 31° |
| 2026-05-06 17:02 | 27.55228 | 123.61462 | 35024 ft | 475 kts | 31° |
| 2026-05-06 17:02 | 27.60594 | 123.65817 | 35022 ft | 475 kts | 31° |
| 2026-05-06 17:03 | 27.65898 | 123.70293 | 35019 ft | 477 kts | 33° |
| 2026-05-06 17:03 | 27.71098 | 123.74958 | 35020 ft | 478 kts | 34° |
| 2026-05-06 17:04 | 27.76301 | 123.79623 | 35036 ft | 478 kts | 34° |
| 2026-05-06 17:04 | 27.81523 | 123.84265 | 35028 ft | 478 kts | 33° |
| 2026-05-06 17:05 | 27.86752 | 123.88907 | 35024 ft | 478 kts | 33° |
| 2026-05-06 17:05 | 27.91980 | 123.93555 | 35027 ft | 478 kts | 33° |
| 2026-05-06 17:06 | 27.97168 | 123.98175 | 35040 ft | 478 kts | 33° |
| 2026-05-06 17:06 | 28.02394 | 124.02834 | 35028 ft | 478 kts | 33° |
| 2026-05-06 17:07 | 28.07615 | 124.07494 | 35029 ft | 478 kts | 33° |
| 2026-05-06 17:07 | 28.12838 | 124.12163 | 35026 ft | 478 kts | 34° |
| 2026-05-06 17:08 | 28.18054 | 124.16832 | 35036 ft | 478 kts | 34° |
| 2026-05-06 17:08 | 28.23274 | 124.21510 | 35031 ft | 478 kts | 34° |
| 2026-05-06 17:09 | 28.28488 | 124.26190 | 35034 ft | 478 kts | 34° |
| 2026-05-06 17:09 | 28.33702 | 124.30876 | 35028 ft | 478 kts | 34° |
| 2026-05-06 17:10 | 28.38912 | 124.35564 | 35037 ft | 478 kts | 34° |
| 2026-05-06 17:10 | 28.44122 | 124.40258 | 35032 ft | 478 kts | 34° |
| 2026-05-06 17:11 | 28.49330 | 124.44957 | 35030 ft | 478 kts | 34° |
| 2026-05-06 17:11 | 28.54534 | 124.49659 | 35045 ft | 478 kts | 34° |
| 2026-05-06 17:12 | 28.59738 | 124.54365 | 35039 ft | 478 kts | 34° |
| 2026-05-06 17:12 | 28.64904 | 124.59045 | 35026 ft | 478 kts | 34° |
| 2026-05-06 17:13 | 28.70107 | 124.63765 | 35032 ft | 478 kts | 34° |
| 2026-05-06 17:13 | 28.75315 | 124.68470 | 35039 ft | 477 kts | 31° |
| 2026-05-06 17:14 | 28.81078 | 124.71965 | 35027 ft | 465 kts | 14° |
| 2026-05-06 17:14 | 28.87199 | 124.74337 | 35022 ft | 465 kts | 14° |
| 2026-05-06 17:15 | 28.93331 | 124.76699 | 35034 ft | 465 kts | 14° |
| 2026-05-06 17:15 | 28.99454 | 124.79110 | 35029 ft | 466 kts | 14° |
| 2026-05-06 17:16 | 29.05575 | 124.81550 | 35032 ft | 466 kts | 15° |
| 2026-05-06 17:16 | 29.11701 | 124.84001 | 35028 ft | 466 kts | 15° |
| 2026-05-06 17:17 | 29.17827 | 124.86453 | 35031 ft | 467 kts | 15° |
| 2026-05-06 17:17 | 29.23959 | 124.88910 | 35036 ft | 467 kts | 15° |
| 2026-05-06 17:18 | 29.30095 | 124.91371 | 35027 ft | 467 kts | 15° |
| 2026-05-06 17:18 | 29.36232 | 124.93836 | 35027 ft | 468 kts | 15° |
| 2026-05-06 17:19 | 29.42375 | 124.96306 | 35036 ft | 468 kts | 15° |
| 2026-05-06 17:19 | 29.48526 | 124.98782 | 35033 ft | 469 kts | 15° |
| 2026-05-06 17:20 | 29.54683 | 125.01263 | 35034 ft | 469 kts | 15° |
| 2026-05-06 17:20 | 29.60847 | 125.03752 | 35037 ft | 469 kts | 15° |
| 2026-05-06 17:21 | 29.67010 | 125.06244 | 35033 ft | 470 kts | 15° |
| 2026-05-06 17:21 | 29.73137 | 125.08724 | 35033 ft | 470 kts | 15° |
| 2026-05-06 17:22 | 29.79304 | 125.11223 | 35038 ft | 470 kts | 15° |
| 2026-05-06 17:22 | 29.85470 | 125.13725 | 35041 ft | 471 kts | 15° |
| 2026-05-06 17:23 | 29.91649 | 125.16236 | 35036 ft | 471 kts | 15° |
| 2026-05-06 17:23 | 29.97835 | 125.18754 | 35036 ft | 471 kts | 15° |
| 2026-05-06 17:24 | 30.04016 | 125.21273 | 35035 ft | 472 kts | 15° |
| 2026-05-06 17:24 | 30.10205 | 125.23805 | 35039 ft | 472 kts | 15° |
| 2026-05-06 17:25 | 30.16395 | 125.26341 | 35036 ft | 472 kts | 15° |
| 2026-05-06 17:25 | 30.22582 | 125.28882 | 35045 ft | 472 kts | 15° |
| 2026-05-06 17:26 | 30.28777 | 125.31428 | 35037 ft | 473 kts | 15° |
| 2026-05-06 17:26 | 30.34975 | 125.33978 | 35035 ft | 473 kts | 15° |
| 2026-05-06 17:27 | 30.41178 | 125.36534 | 35036 ft | 473 kts | 15° |
| 2026-05-06 17:27 | 30.47388 | 125.39096 | 35037 ft | 474 kts | 16° |
| 2026-05-06 17:28 | 30.53604 | 125.41664 | 35038 ft | 475 kts | 16° |
| 2026-05-06 17:28 | 30.59785 | 125.44222 | 35023 ft | 475 kts | 16° |
| 2026-05-06 17:28 | 30.62904 | 125.45513 | 34777 ft | 476 kts | 16° |
| 2026-05-06 17:29 | 30.66013 | 125.46802 | 34552 ft | 474 kts | 16° |
| 2026-05-06 17:29 | 30.69119 | 125.48090 | 34325 ft | 474 kts | 16° |
| 2026-05-06 17:29 | 30.72233 | 125.49383 | 34108 ft | 476 kts | 16° |
| 2026-05-06 17:29 | 30.75357 | 125.50679 | 33855 ft | 477 kts | 16° |
| 2026-05-06 17:30 | 30.78488 | 125.51980 | 33593 ft | 478 kts | 16° |
| 2026-05-06 17:30 | 30.81621 | 125.53283 | 33359 ft | 479 kts | 16° |
| 2026-05-06 17:30 | 30.84761 | 125.54590 | 33104 ft | 479 kts | 16° |
| 2026-05-06 17:30 | 30.87900 | 125.55898 | 32848 ft | 479 kts | 16° |
| 2026-05-06 17:31 | 30.91038 | 125.57206 | 32596 ft | 479 kts | 16° |
| 2026-05-06 17:31 | 30.94176 | 125.58515 | 32348 ft | 479 kts | 16° |
| 2026-05-06 17:31 | 30.97314 | 125.59825 | 32102 ft | 479 kts | 16° |
| 2026-05-06 17:31 | 31.00448 | 125.61133 | 31857 ft | 479 kts | 15° |
| 2026-05-06 17:32 | 31.03583 | 125.62443 | 31625 ft | 479 kts | 15° |
| 2026-05-06 17:32 | 31.06731 | 125.63759 | 31390 ft | 484 kts | 15° |
| 2026-05-06 17:32 | 31.09922 | 125.65092 | 31158 ft | 490 kts | 15° |
| 2026-05-06 17:32 | 31.13141 | 125.66438 | 30930 ft | 494 kts | 15° |
| 2026-05-06 17:33 | 31.16377 | 125.67795 | 30693 ft | 493 kts | 15° |
| 2026-05-06 17:33 | 31.19606 | 125.69151 | 30461 ft | 493 kts | 15° |
| 2026-05-06 17:33 | 31.22835 | 125.70507 | 30231 ft | 493 kts | 15° |
| 2026-05-06 17:33 | 31.26068 | 125.71866 | 30003 ft | 494 kts | 15° |
| 2026-05-06 17:34 | 31.29306 | 125.73227 | 29730 ft | 495 kts | 15° |
| 2026-05-06 17:34 | 31.32550 | 125.74591 | 29458 ft | 495 kts | 15° |
| 2026-05-06 17:34 | 31.35790 | 125.75955 | 29204 ft | 495 kts | 15° |
| 2026-05-06 17:34 | 31.38984 | 125.77301 | 28938 ft | 494 kts | 15° |
| 2026-05-06 17:35 | 31.42218 | 125.78664 | 28672 ft | 494 kts | 15° |
| 2026-05-06 17:35 | 31.45453 | 125.80029 | 28426 ft | 494 kts | 16° |
| 2026-05-06 17:35 | 31.48692 | 125.81397 | 28172 ft | 495 kts | 16° |
| 2026-05-06 17:36 | 31.55182 | 125.84140 | 27667 ft | 497 kts | 16° |
| 2026-05-06 17:36 | 31.58435 | 125.85516 | 27430 ft | 497 kts | 16° |
| 2026-05-06 17:36 | 31.61692 | 125.86892 | 27181 ft | 498 kts | 16° |
| 2026-05-06 17:36 | 31.64956 | 125.88264 | 26941 ft | 499 kts | 16° |
| 2026-05-06 17:37 | 31.68228 | 125.89638 | 26703 ft | 500 kts | 16° |
| 2026-05-06 17:37 | 31.71504 | 125.91017 | 26464 ft | 501 kts | 16° |
| 2026-05-06 17:37 | 31.74757 | 125.92389 | 26209 ft | 494 kts | 16° |
| 2026-05-06 17:37 | 31.77986 | 125.93751 | 25981 ft | 496 kts | 16° |
| 2026-05-06 17:38 | 31.81258 | 125.95128 | 25760 ft | 502 kts | 16° |
| 2026-05-06 17:38 | 31.84556 | 125.96517 | 25534 ft | 503 kts | 16° |
| 2026-05-06 17:38 | 31.87837 | 125.97902 | 25297 ft | 500 kts | 16° |
| 2026-05-06 17:38 | 31.91101 | 125.99281 | 25067 ft | 498 kts | 16° |
| 2026-05-06 17:39 | 31.94357 | 126.00658 | 24836 ft | 496 kts | 16° |
| 2026-05-06 17:39 | 31.97602 | 126.02031 | 24611 ft | 495 kts | 16° |
| 2026-05-06 17:39 | 32.00839 | 126.03401 | 24386 ft | 493 kts | 16° |
| 2026-05-06 17:39 | 32.04061 | 126.04765 | 24172 ft | 492 kts | 16° |
| 2026-05-06 17:40 | 32.07281 | 126.06130 | 23945 ft | 491 kts | 16° |
| 2026-05-06 17:40 | 32.10493 | 126.07489 | 23731 ft | 490 kts | 16° |
| 2026-05-06 17:40 | 32.13697 | 126.08846 | 23492 ft | 489 kts | 16° |
| 2026-05-06 17:40 | 32.16893 | 126.10199 | 23230 ft | 487 kts | 16° |
| 2026-05-06 17:41 | 32.20073 | 126.11547 | 23005 ft | 481 kts | 16° |
| 2026-05-06 17:41 | 32.23108 | 126.12840 | 22885 ft | 457 kts | 16° |
| 2026-05-06 17:42 | 32.31293 | 126.16327 | 21440 ft | 413 kts | 16° |
| 2026-05-06 17:42 | 32.34009 | 126.17478 | 20326 ft | 418 kts | 17° |
| 2026-05-06 17:42 | 32.36750 | 126.18638 | 19357 ft | 418 kts | 17° |
| 2026-05-06 17:42 | 32.39475 | 126.19797 | 18626 ft | 413 kts | 17° |
| 2026-05-06 17:43 | 32.42126 | 126.20929 | 18357 ft | 395 kts | 17° |
| 2026-05-06 17:43 | 32.44665 | 126.22014 | 18105 ft | 384 kts | 17° |
| 2026-05-06 17:43 | 32.47178 | 126.23086 | 17904 ft | 384 kts | 17° |
| 2026-05-06 17:43 | 32.49697 | 126.24159 | 17704 ft | 385 kts | 17° |
| 2026-05-06 17:44 | 32.51365 | 126.24871 | 17576 ft | 389 kts | 17° |
| 2026-05-06 17:44 | 32.57445 | 126.27477 | 16913 ft | 373 kts | 18° |
| 2026-05-06 17:44 | 32.59878 | 126.28524 | 16721 ft | 372 kts | 18° |
| 2026-05-06 17:45 | 32.62324 | 126.29577 | 16545 ft | 376 kts | 18° |
| 2026-05-06 17:45 | 32.64794 | 126.30639 | 16335 ft | 381 kts | 18° |
| 2026-05-06 17:45 | 32.67348 | 126.31736 | 16151 ft | 402 kts | 18° |
| 2026-05-06 17:45 | 32.70032 | 126.32890 | 15943 ft | 413 kts | 18° |
| 2026-05-06 17:46 | 32.72701 | 126.34043 | 15717 ft | 403 kts | 18° |
| 2026-05-06 17:46 | 32.75291 | 126.35165 | 15506 ft | 390 kts | 18° |
| 2026-05-06 17:46 | 32.77805 | 126.36254 | 15336 ft | 379 kts | 18° |
| 2026-05-06 17:46 | 32.80242 | 126.37309 | 15190 ft | 367 kts | 18° |
| 2026-05-06 17:47 | 32.82611 | 126.38335 | 15037 ft | 357 kts | 18° |
| 2026-05-06 17:47 | 32.84916 | 126.39332 | 14888 ft | 348 kts | 18° |
| 2026-05-06 17:47 | 32.87161 | 126.40304 | 14739 ft | 339 kts | 18° |
| 2026-05-06 17:47 | 32.89349 | 126.41251 | 14590 ft | 331 kts | 18° |
| 2026-05-06 17:48 | 32.91493 | 126.42179 | 14448 ft | 326 kts | 18° |
| 2026-05-06 17:48 | 32.93614 | 126.43098 | 14309 ft | 323 kts | 18° |
| 2026-05-06 17:48 | 32.95716 | 126.44009 | 14172 ft | 320 kts | 18° |
| 2026-05-06 17:48 | 32.97803 | 126.44914 | 14037 ft | 320 kts | 18° |
| 2026-05-06 17:49 | 32.99892 | 126.45885 | 13895 ft | 326 kts | 26° |
| 2026-05-06 17:49 | 33.01671 | 126.47568 | 13762 ft | 328 kts | 45° |
| 2026-05-06 17:49 | 33.03244 | 126.49537 | 13597 ft | 328 kts | 45° |
| 2026-05-06 17:49 | 33.04803 | 126.51527 | 13405 ft | 329 kts | 46° |
| 2026-05-06 17:50 | 33.06110 | 126.53198 | 13240 ft | 329 kts | 46° |
| 2026-05-06 17:50 | 33.07670 | 126.55189 | 13010 ft | 329 kts | 46° |
| 2026-05-06 17:50 | 33.09442 | 126.57439 | 12755 ft | 326 kts | 46° |